^^
Your Local Weather - Clay, NY Station Historical Data
Daily Summary for February 3, 2018 Units:  Metric    English   Both
« Previous Day
Next Day »
Daily Weekly Monthly Yearly Custom
  High: Low: Average:
Temperature: -1.1 °C -12.6 °C -6.9 °C
Dew Point: -7.4 °C -16.3 °C -12.6 °C
Humidity: 84% 47% 65%
Wind Speed: 9.7km/h 0km/h 5km/h
Wind Gust: 20.9km/h - -
Wind- - SW
Pressure: 1025.3 hPa 1017.2 hPa -
Precipitation: 0.25 mm    
Historical Graphs
 
 
Tabular Data for February 3, 2018
Time Temperature Dew Point Pressure Wind Wind Speed Wind Gust Humidity Rainfall Rate (Hourly) solar
00:00 -11.6 °C -13.8 °C 1024.9 hPa WSW 3.2 km/h 3.2 km/h 84% 0 mm 0 W/m2
00:06 -11.6 °C -13.8 °C 1024.9 hPa SW 1.6 km/h 3.2 km/h 84% 0 mm 0 W/m2
00:12 -11.6 °C -13.8 °C 1024.6 hPa SW 1.6 km/h 1.6 km/h 84% 0 mm 0 W/m2
00:18 -11.7 °C -14 °C 1024.6 hPa Calm   1.6 km/h 83% 0 mm 0 W/m2
00:24 -11.8 °C -14.2 °C 1024.6 hPa SW 1.6 km/h 4.8 km/h 82% 0 mm 0 W/m2
00:30 -11.9 °C -14.3 °C 1024.6 hPa SW 1.6 km/h 1.6 km/h 82% 0 mm 0 W/m2
00:36 -12 °C -14.6 °C 1024.6 hPa SW 1.6 km/h 1.6 km/h 81% 0 mm 0 W/m2
00:42 -12.1 °C -14.8 °C 1024.6 hPa SW 1.6 km/h 3.2 km/h 80% 0 mm 0 W/m2
00:48 -12.1 °C -15 °C 1024.3 hPa SSW 3.2 km/h 4.8 km/h 79% 0 mm 0 W/m2
00:54 -12.2 °C -15.3 °C 1024.3 hPa SW 3.2 km/h 3.2 km/h 78% 0 mm 0 W/m2
01:00 -12.2 °C -15.4 °C 1024.3 hPa WSW 1.6 km/h 1.6 km/h 77% 0 mm 0 W/m2
01:06 -12.3 °C -15.5 °C 1024.3 hPa WSW 3.2 km/h 3.2 km/h 77% 0 mm 0 W/m2
01:12 -12.3 °C -15.7 °C 1024.3 hPa SW 3.2 km/h 3.2 km/h 76% 0 mm 0 W/m2
01:18 -12.3 °C -15.8 °C 1024.3 hPa WSW 3.2 km/h 6.4 km/h 75% 0 mm 0 W/m2
01:24 -12.4 °C -15.9 °C 1024.3 hPa WSW 3.2 km/h 6.4 km/h 75% 0 mm 0 W/m2
01:30 -12.4 °C -15.9 °C 1024.3 hPa WSW 3.2 km/h 3.2 km/h 75% 0 mm 0 W/m2
01:36 -12.5 °C -16 °C 1024.3 hPa WSW 1.6 km/h 6.4 km/h 75% 0 mm 0 W/m2
01:42 -12.5 °C -16 °C 1024.3 hPa SW 3.2 km/h 6.4 km/h 75% 0 mm 0 W/m2
01:48 -12.5 °C -16 °C 1024.3 hPa WSW 3.2 km/h 6.4 km/h 75% 0 mm 0 W/m2
01:54 -12.6 °C -16.2 °C 1023.9 hPa SW 1.6 km/h 6.4 km/h 74% 0 mm 0 W/m2
02:00 -12.6 °C -16.3 °C 1023.9 hPa WSW 3.2 km/h 3.2 km/h 74% 0 mm 0 W/m2
02:06 -12.6 °C -16.3 °C 1024.3 hPa WSW 1.6 km/h 3.2 km/h 74% 0 mm 0 W/m2
02:12 -12.6 °C -16.3 °C 1023.9 hPa WSW 1.6 km/h 1.6 km/h 74% 0 mm 0 W/m2
02:18 -12.6 °C -16.3 °C 1023.9 hPa WSW 1.6 km/h 3.2 km/h 74% 0 mm 0 W/m2
02:24 -12.6 °C -16.2 °C 1023.9 hPa SW 3.2 km/h 4.8 km/h 74% 0 mm 0 W/m2
02:30 -12.5 °C -16.2 °C 1023.9 hPa SW 1.6 km/h 3.2 km/h 74% 0 mm 0 W/m2
02:36 -12.4 °C -16.1 °C 1023.9 hPa WSW 3.2 km/h 4.8 km/h 74% 0 mm 0 W/m2
02:42 -12.2 °C -15.7 °C 1023.9 hPa SW 3.2 km/h 3.2 km/h 75% 0 mm 0 W/m2
02:48 -11.9 °C -15.7 °C 1023.6 hPa SSW 4.8 km/h 4.8 km/h 74% 0 mm 0 W/m2
02:54 -11.8 °C -15.5 °C 1023.6 hPa SW 4.8 km/h 9.7 km/h 74% 0 mm 0 W/m2
03:00 -11.7 °C -15.4 °C 1023.6 hPa SSW 4.8 km/h 11.3 km/h 74% 0 mm 0 W/m2
03:06 -11.5 °C -15.2 °C 1023.6 hPa WSW 4.8 km/h 14.5 km/h 74% 0 mm 0 W/m2
03:12 -11.4 °C -15.1 °C 1023.6 hPa WSW 6.4 km/h 9.7 km/h 74% 0 mm 0 W/m2
03:18 -11.3 °C -15.1 °C 1023.6 hPa SW 6.4 km/h 9.7 km/h 74% 0 mm 0 W/m2
03:24 -11.3 °C -14.8 °C 1023.6 hPa WSW 4.8 km/h 8 km/h 75% 0 mm 0 W/m2
03:30 -11.3 °C -14.8 °C 1023.6 hPa WSW 4.8 km/h 4.8 km/h 75% 0 mm 0 W/m2
03:36 -11.2 °C -14.8 °C 1023.6 hPa SW 4.8 km/h 8 km/h 75% 0 mm 0 W/m2
03:42 -11.1 °C -14.4 °C 1023.6 hPa SW 4.8 km/h 8 km/h 76% 0 mm 0 W/m2
03:48 -10.9 °C -14.3 °C 1023.2 hPa SW 6.4 km/h 9.7 km/h 76% 0 mm 0 W/m2
03:54 -10.9 °C -14.3 °C 1023.6 hPa West 6.4 km/h 6.4 km/h 76% 0 mm 0 W/m2
04:00 -10.8 °C -14.4 °C 1023.6 hPa West 6.4 km/h 6.4 km/h 75% 0 mm 0 W/m2
04:06 -10.7 °C -14.3 °C 1023.6 hPa SW 6.4 km/h 12.9 km/h 75% 0 mm 0 W/m2
04:12 -10.7 °C -14.3 °C 1023.6 hPa SW 6.4 km/h 12.9 km/h 75% 0 mm 0 W/m2
04:20 -10.6 °C -14.2 °C 1023.6 hPa West 6.4 km/h 11.3 km/h 75% 0 mm 0 W/m2
04:26 -10.5 °C -14.2 °C 1023.6 hPa South 6.4 km/h 11.3 km/h 74% 0 mm 0 W/m2
04:32 -10.3 °C -14.1 °C 1023.6 hPa SW 8 km/h 9.7 km/h 74% 0 mm 0 W/m2
04:38 -10.3 °C -14.2 °C 1023.6 hPa WNW 6.4 km/h 9.7 km/h 73% 0 mm 0 W/m2
04:44 -10.3 °C -14.2 °C 1023.6 hPa SW 6.4 km/h 8 km/h 73% 0 mm 0 W/m2
04:50 -10.3 °C -14.2 °C 1023.9 hPa SW 6.4 km/h 6.4 km/h 73% 0 mm 0 W/m2
04:56 -10.3 °C -14 °C 1023.9 hPa SW 6.4 km/h 8 km/h 74% 0 mm 0 W/m2
05:02 -10.2 °C -13.9 °C 1023.9 hPa SW 6.4 km/h 9.7 km/h 74% 0 mm 0 W/m2
05:08 -10.1 °C -13.8 °C 1024.3 hPa West 8 km/h 11.3 km/h 74% 0 mm 0 W/m2
05:14 -9.9 °C -13.9 °C 1024.3 hPa SW 8 km/h 11.3 km/h 73% 0 mm 0 W/m2
05:20 -9.8 °C -13.8 °C 1024.3 hPa WSW 8 km/h 8 km/h 73% 0 mm 0 W/m2
05:26 -9.9 °C -13.7 °C 1024.3 hPa SW 8 km/h 16.1 km/h 74% 0 mm 0 W/m2
05:32 -10.2 °C -13.8 °C 1024.3 hPa WSW 8 km/h 8 km/h 75% 0 mm 0 W/m2
05:38 -10.3 °C -13.9 °C 1024.3 hPa SW 6.4 km/h 8 km/h 75% 0 mm 0 W/m2
05:44 -10.3 °C -13.7 °C 1024.3 hPa South 8 km/h 12.9 km/h 76% 0 mm 0 W/m2
05:50 -10.2 °C -13.7 °C 1024.3 hPa South 9.7 km/h 9.7 km/h 76% 0 mm 0 W/m2
05:56 -10.2 °C -13.4 °C 1024.3 hPa SSW 9.7 km/h 17.7 km/h 77% 0 mm 0 W/m2
06:02 -10 °C -13.3 °C 1024.3 hPa SSE 8 km/h 14.5 km/h 77% 0 mm 0 W/m2
06:08 -9.9 °C -13.3 °C 1024.3 hPa SSW 8 km/h 14.5 km/h 76% 0 mm 0 W/m2
06:14 -9.8 °C -13.3 °C 1024.6 hPa WSW 8 km/h 8 km/h 76% 0 mm 0 W/m2
06:20 -9.9 °C -13.3 °C 1024.6 hPa NW 4.8 km/h 4.8 km/h 76% 0 mm 0 W/m2
06:26 -9.9 °C -13.2 °C 1024.6 hPa SW 3.2 km/h 6.4 km/h 77% 0 mm 0 W/m2
06:32 -10.1 °C -13.3 °C 1024.6 hPa SW 3.2 km/h 4.8 km/h 77% 0 mm 0 W/m2
06:38 -10.3 °C -13.6 °C 1024.6 hPa SW 1.6 km/h 4.8 km/h 77% 0 mm 0 W/m2
06:44 -10.4 °C -13.5 °C 1024.6 hPa SW 1.6 km/h 3.2 km/h 78% 0 mm 0 W/m2
06:50 -10.5 °C -13.6 °C 1024.6 hPa SW 3.2 km/h 3.2 km/h 78% 0 mm 0 W/m2
06:56 -10.4 °C -13.4 °C 1024.6 hPa SW 3.2 km/h 6.4 km/h 79% 0 mm 0 W/m2
07:02 -10.4 °C -13.3 °C 1024.6 hPa SSW 3.2 km/h 4.8 km/h 79% 0 mm 0 W/m2
07:08 -10.3 °C -13.1 °C 1024.6 hPa South 4.8 km/h 4.8 km/h 80% 0 mm 0 W/m2
07:14 -10.3 °C -13.1 °C 1024.6 hPa SSW 3.2 km/h 3.2 km/h 80% 0 mm 0 W/m2
07:20 -10.3 °C -13.1 °C 1024.6 hPa SSW 3.2 km/h 6.4 km/h 80% 0 mm 9 W/m2
07:26 -10.2 °C -12.8 °C 1024.6 hPa SSW 3.2 km/h 6.4 km/h 81% 0 mm 12 W/m2
07:32 -10.2 °C -12.8 °C 1024.6 hPa South 4.8 km/h 4.8 km/h 81% 0 mm 14 W/m2
07:38 -10.2 °C -12.8 °C 1024.6 hPa South 1.6 km/h 4.8 km/h 81% 0 mm 18 W/m2
07:44 -10.2 °C -12.7 °C 1024.6 hPa South 1.6 km/h 3.2 km/h 82% 0 mm 18 W/m2
07:50 -10.1 °C -12.6 °C 1024.6 hPa South 3.2 km/h 3.2 km/h 82% 0 mm 23 W/m2
07:56 -10.1 °C -12.4 °C 1024.9 hPa SW 3.2 km/h 3.2 km/h 83% 0 mm 25 W/m2
08:02 -9.9 °C -12.3 °C 1024.9 hPa SW 3.2 km/h 4.8 km/h 83% 0 mm 33 W/m2
08:08 -9.9 °C -12.3 °C 1024.9 hPa South 3.2 km/h 8 km/h 83% 0 mm 49 W/m2
08:14 -9.9 °C -12.2 °C 1024.9 hPa South 4.8 km/h 4.8 km/h 83% 0 mm 83 W/m2
08:20 -9.8 °C -12 °C 1024.9 hPa SSW 3.2 km/h 8 km/h 84% 0 mm 62 W/m2
08:26 -9.7 °C -11.9 °C 1024.9 hPa SW 3.2 km/h 8 km/h 84% 0 mm 91 W/m2
08:32 -9.4 °C -11.7 °C 1025.3 hPa SSW 3.2 km/h 4.8 km/h 84% 0 mm 130 W/m2
08:38 -9.2 °C -11.4 °C 1024.9 hPa SW 3.2 km/h 6.4 km/h 84% 0 mm 114 W/m2
08:44 -9.2 °C -11.4 °C 1024.9 hPa SSW 4.8 km/h 8 km/h 84% 0 mm 113 W/m2
08:50 -9.2 °C -11.4 °C 1024.9 hPa SSW 4.8 km/h 6.4 km/h 84% 0 mm 125 W/m2
08:56 -9.1 °C -11.4 °C 1024.9 hPa SW 4.8 km/h 6.4 km/h 83% 0 mm 127 W/m2
09:02 -8.8 °C -11.3 °C 1025.3 hPa WSW 4.8 km/h 4.8 km/h 82% 0 mm 132 W/m2
09:08 -8.6 °C -11.4 °C 1024.9 hPa SW 6.4 km/h 6.4 km/h 80% 0 mm 221 W/m2
09:16 -8.3 °C -12.3 °C 1025.3 hPa SW 8 km/h 17.7 km/h 73% 0 mm 144 W/m2
09:22 -8.2 °C -12.6 °C 1025.3 hPa WSW 8 km/h 11.3 km/h 71% 0 mm 230 W/m2
09:28 -7.9 °C -12.8 °C 1025.3 hPa SW 8 km/h 16.1 km/h 68% 0 mm 281 W/m2
09:34 -7.8 °C -12.8 °C 1025.3 hPa West 8 km/h 9.7 km/h 67% 0 mm 250 W/m2
09:40 -7.6 °C -13.1 °C 1025.3 hPa WSW 6.4 km/h 8 km/h 65% 0 mm 329 W/m2
09:46 -7.2 °C -13.1 °C 1025.3 hPa SW 6.4 km/h 8 km/h 63% 0 mm 353 W/m2
09:52 -7.1 °C -13.4 °C 1025.3 hPa WSW 6.4 km/h 6.4 km/h 61% 0 mm 376 W/m2
09:58 -6.8 °C -13.1 °C 1025.3 hPa SW 6.4 km/h 6.4 km/h 61% 0 mm 425 W/m2
10:04 -6.8 °C -13.3 °C 1024.9 hPa WSW 8 km/h 14.5 km/h 60% 0 mm 468 W/m2
10:10 -6.6 °C -13.1 °C 1025.3 hPa WSW 9.7 km/h 11.3 km/h 60% 0 mm 540 W/m2
10:16 -6.5 °C -13 °C 1025.3 hPa WSW 9.7 km/h 11.3 km/h 60% 0 mm 476 W/m2
10:22 -6.3 °C -13.3 °C 1025.3 hPa West 8 km/h 14.5 km/h 58% 0 mm 497 W/m2
10:28 -6.4 °C -13.3 °C 1025.3 hPa WSW 8 km/h 14.5 km/h 58% 0 mm 258 W/m2
10:34 -6.9 °C -13.6 °C 1025.3 hPa West 9.7 km/h 12.9 km/h 59% 0 mm 183 W/m2
10:40 -6.9 °C -13.4 °C 1025.3 hPa West 9.7 km/h 9.7 km/h 60% 0 mm 130 W/m2
10:46 -6.6 °C -13.3 °C 1025.3 hPa WSW 8 km/h 9.7 km/h 59% 0 mm 116 W/m2
10:52 -6.4 °C -13.1 °C 1024.9 hPa SW 6.4 km/h 6.4 km/h 59% 0 mm 104 W/m2
10:58 -6.2 °C -12.9 °C 1024.9 hPa West 8 km/h 16.1 km/h 59% 0 mm 603 W/m2
11:04 -5.9 °C -12.9 °C 1024.6 hPa WSW 8 km/h 8 km/h 58% 0 mm 543 W/m2
11:10 -6.1 °C -13.2 °C 1024.6 hPa SSW 8 km/h 8 km/h 57% 0 mm 582 W/m2
11:16 -5.8 °C -13 °C 1024.6 hPa WSW 9.7 km/h 9.7 km/h 57% 0 mm 601 W/m2
11:22 -5.9 °C -13.1 °C 1024.6 hPa West 8 km/h 8 km/h 57% 0 mm 441 W/m2
11:28 -5.7 °C -13.3 °C 1024.6 hPa WSW 9.7 km/h 14.5 km/h 55% 0 mm 584 W/m2
11:34 -5.4 °C -13 °C 1024.3 hPa West 9.7 km/h 9.7 km/h 55% 0 mm 587 W/m2
11:40 -5.3 °C -12.9 °C 1024.3 hPa West 8 km/h 8 km/h 55% 0 mm 531 W/m2
11:46 -4.8 °C -12.7 °C 1024.3 hPa SW 6.4 km/h 9.7 km/h 54% 0 mm 629 W/m2
11:52 -5 °C -12.9 °C 1024.3 hPa WSW 6.4 km/h 12.9 km/h 54% 0 mm 717 W/m2
11:58 -4.7 °C -12.3 °C 1024.3 hPa WSW 8 km/h 12.9 km/h 55% 0 mm 647 W/m2
12:04 -4.4 °C -12.6 °C 1024.3 hPa WSW 6.4 km/h 8 km/h 53% 0 mm 733 W/m2
12:10 -4.8 °C -12.9 °C 1024.3 hPa SSW 9.7 km/h 9.7 km/h 53% 0 mm 278 W/m2
12:16 -5.1 °C -12.7 °C 1024.3 hPa SSE 9.7 km/h 12.9 km/h 55% 0 mm 325 W/m2
12:22 -4.8 °C -12.7 °C 1023.9 hPa SW 9.7 km/h 9.7 km/h 54% 0 mm 715 W/m2
12:28 -4.4 °C -12.8 °C 1023.6 hPa WNW 6.4 km/h 20.9 km/h 52% 0 mm 636 W/m2
12:34 -4.8 °C -13.2 °C 1023.6 hPa SSW 8 km/h 11.3 km/h 52% 0 mm 232 W/m2
12:40 -5 °C -13.1 °C 1023.6 hPa WNW 9.7 km/h 9.7 km/h 53% 0 mm 339 W/m2
12:46 -4.7 °C -12.8 °C 1023.2 hPa SW 8 km/h 11.3 km/h 53% 0 mm 269 W/m2
12:52 -4.4 °C -12.3 °C 1023.2 hPa WSW 6.4 km/h 14.5 km/h 54% 0 mm 670 W/m2
12:58 -4.8 °C -12.9 °C 1023.2 hPa West 6.4 km/h 14.5 km/h 53% 0 mm 225 W/m2
13:04 -5.1 °C -13 °C 1023.2 hPa West 8 km/h 8 km/h 54% 0 mm 287 W/m2
13:10 -5.1 °C -12.9 °C 1023.2 hPa WSW 6.4 km/h 8 km/h 54% 0 mm 199 W/m2
13:16 -5.1 °C -12.8 °C 1023.2 hPa West 8 km/h 8 km/h 55% 0 mm 202 W/m2
13:22 -5.1 °C -12.8 °C 1022.9 hPa WSW 8 km/h 8 km/h 55% 0 mm 199 W/m2
13:28 -5.1 °C -12.9 °C 1022.9 hPa SSW 6.4 km/h 14.5 km/h 54% 0 mm 188 W/m2
13:34 -5 °C -12.9 °C 1022.9 hPa SSW 6.4 km/h 8 km/h 54% 0 mm 160 W/m2
13:40 -4.9 °C -12.8 °C 1022.9 hPa SW 4.8 km/h 4.8 km/h 54% 0 mm 193 W/m2
13:46 -4.8 °C -12.7 °C 1022.9 hPa WSW 4.8 km/h 9.7 km/h 54% 0 mm 199 W/m2
13:52 -4.7 °C -12.8 °C 1022.6 hPa SSW 8 km/h 8 km/h 53% 0 mm 239 W/m2
13:58 -4.7 °C -12.8 °C 1022.6 hPa WSW 8 km/h 8 km/h 53% 0 mm 239 W/m2
14:04 -4.5 °C -12.4 °C 1022.6 hPa SW 8 km/h 8 km/h 54% 0 mm 330 W/m2
14:10 -4.6 °C -12.7 °C 1022.9 hPa South 8 km/h 9.7 km/h 53% 0 mm 206 W/m2
14:16 -4.7 °C -12.4 °C 1022.6 hPa South 9.7 km/h 17.7 km/h 55% 0 mm 290 W/m2
14:22 -4.6 °C -12.3 °C 1022.6 hPa SSW 8 km/h 9.7 km/h 55% 0 mm 211 W/m2
14:28 -4.4 °C -12.3 °C 1022.6 hPa SW 4.8 km/h 9.7 km/h 54% 0 mm 188 W/m2
14:34 -4.4 °C -12.6 °C 1022.6 hPa SW 6.4 km/h 12.9 km/h 53% 0 mm 179 W/m2
14:40 -4.4 °C -12.6 °C 1022.6 hPa South 8 km/h 8 km/h 53% 0 mm 195 W/m2
14:46 -4.3 °C -12.7 °C 1022.6 hPa SSW 8 km/h 8 km/h 52% 0 mm 190 W/m2
14:52 -4.1 °C -12.8 °C 1022.6 hPa WSW 6.4 km/h 6.4 km/h 51% 0 mm 167 W/m2
14:58 -4.1 °C -12.7 °C 1022.2 hPa SW 6.4 km/h 6.4 km/h 51% 0 mm 158 W/m2
15:04 -3.9 °C -12.6 °C 1022.2 hPa SSW 4.8 km/h 11.3 km/h 51% 0 mm 163 W/m2
15:10 -3.9 °C -13.1 °C 1022.2 hPa SSW 6.4 km/h 8 km/h 49% 0 mm 151 W/m2
15:16 -3.9 °C -13.3 °C 1021.9 hPa WSW 8 km/h 9.7 km/h 48% 0 mm 139 W/m2
15:22 -3.9 °C -13.1 °C 1021.9 hPa SSW 6.4 km/h 9.7 km/h 49% 0 mm 116 W/m2
15:32 -3.8 °C -13.5 °C 1021.9 hPa SW 4.8 km/h 4.8 km/h 47% 0 mm 81 W/m2
15:38 -3.8 °C -13.5 °C 1021.9 hPa South 4.8 km/h 8 km/h 47% 0 mm 72 W/m2
15:43 -3.8 °C -13.5 °C 1021.9 hPa SSW 6.4 km/h 6.4 km/h 47% 0 mm 58 W/m2
15:49 -3.8 °C -13.3 °C 1021.9 hPa SSW 6.4 km/h 6.4 km/h 48% 0 mm 53 W/m2
15:55 -3.8 °C -13.3 °C 1021.9 hPa SW 6.4 km/h 11.3 km/h 48% 0 mm 46 W/m2
16:02 -3.8 °C -13 °C 1021.9 hPa SSW 4.8 km/h 4.8 km/h 49% 0 mm 44 W/m2
16:08 -3.8 °C -12.9 °C 1021.9 hPa SSW 4.8 km/h 6.4 km/h 49% 0 mm 46 W/m2
16:13 -3.7 °C -12.7 °C 1021.9 hPa South 6.4 km/h 6.4 km/h 50% 0 mm 44 W/m2
16:19 -3.7 °C -12.4 °C 1021.6 hPa SW 3.2 km/h 6.4 km/h 51% 0 mm 40 W/m2
16:25 -3.7 °C -12.7 °C 1021.6 hPa South 1.6 km/h 6.4 km/h 50% 0 mm 37 W/m2
16:32 -3.7 °C -12.6 °C 1021.6 hPa South 4.8 km/h 4.8 km/h 50% 0 mm 26 W/m2
16:38 -3.7 °C -12.3 °C 1021.6 hPa SSW 4.8 km/h 6.4 km/h 51% 0 mm 23 W/m2
16:43 -3.7 °C -12.6 °C 1021.6 hPa SSW 3.2 km/h 3.2 km/h 50% 0 mm 19 W/m2
16:49 -3.7 °C -12.3 °C 1021.6 hPa SSW 1.6 km/h 1.6 km/h 51% 0 mm 14 W/m2
16:55 -3.7 °C -12.3 °C 1021.2 hPa SSW 1.6 km/h 4.8 km/h 51% 0 mm 12 W/m2
17:02 -3.7 °C -12.3 °C 1021.2 hPa SSW 1.6 km/h 1.6 km/h 51% 0 mm 9 W/m2
17:08 -3.7 °C -12.4 °C 1021.2 hPa SSW 1.6 km/h 3.2 km/h 51% 0 mm 7 W/m2
17:13 -3.7 °C -12.2 °C 1020.9 hPa SSW 1.6 km/h 3.2 km/h 52% 0 mm 5 W/m2
17:19 -3.8 °C -12.1 °C 1020.9 hPa Calm     53% 0 mm 0 W/m2
17:25 -3.9 °C -12.1 °C 1020.9 hPa Calm     53% 0 mm 0 W/m2
17:31 -4 °C -11.7 °C 1020.9 hPa Calm     55% 0 mm 0 W/m2
17:38 -4.2 °C -11.7 °C 1020.9 hPa Calm     56% 0 mm 0 W/m2
17:43 -4.4 °C -11.5 °C 1020.9 hPa Calm     58% 0 mm 0 W/m2
17:49 -4.6 °C -11.6 °C 1020.9 hPa Calm     58% 0 mm 0 W/m2
17:55 -4.8 °C -11.6 °C 1020.9 hPa Calm     59% 0 mm 0 W/m2
18:02 -5.1 °C -11.6 °C 1020.9 hPa Calm     60% 0 mm 0 W/m2
18:08 -5.1 °C -11.9 °C 1020.9 hPa Calm   1.6 km/h 59% 0 mm 0 W/m2
18:13 -5.2 °C -11.5 °C 1020.5 hPa Calm     61% 0 mm 0 W/m2
18:19 -5.3 °C -11.5 °C 1020.5 hPa Calm     62% 0 mm 0 W/m2
18:25 -5.4 °C -11.2 °C 1020.2 hPa Calm     64% 0 mm 0 W/m2
18:32 -5.6 °C -11.2 °C 1020.2 hPa Calm     65% 0 mm 0 W/m2
18:38 -5.7 °C -11.2 °C 1020.2 hPa Calm     65% 0 mm 0 W/m2
18:43 -5.8 °C -11.3 °C 1020.2 hPa Calm     65% 0 mm 0 W/m2
18:49 -5.9 °C -11.3 °C 1020.2 hPa Calm     66% 0 mm 0 W/m2
18:55 -6.1 °C -11.2 °C 1020.2 hPa Calm     67% 0 mm 0 W/m2
19:02 -6.1 °C -11.2 °C 1020.2 hPa Calm     67% 0 mm 0 W/m2
19:08 -6.1 °C -11.1 °C 1020.2 hPa Calm     68% 0 mm 0 W/m2
19:13 -6.2 °C -11.1 °C 1020.2 hPa Calm     68% 0 mm 0 W/m2
19:19 -6.2 °C -11.2 °C 1020.2 hPa Calm     68% 0 mm 0 W/m2
19:25 -6.3 °C -11.1 °C 1020.2 hPa Calm     69% 0 mm 0 W/m2
19:32 -6.4 °C -11 °C 1020.2 hPa Calm     70% 0 mm 0 W/m2
19:38 -6.4 °C -11.2 °C 1019.9 hPa Calm     69% 0 mm 0 W/m2
19:43 -6.3 °C -11.2 °C 1019.9 hPa Calm     68% 0 mm 0 W/m2
19:49 -6.2 °C -11.1 °C 1019.9 hPa Calm     68% 0 mm 0 W/m2
19:55 -6.1 °C -11.2 °C 1019.9 hPa Calm     67% 0 mm 0 W/m2
20:02 -5.8 °C -11.4 °C 1019.5 hPa Calm   3.2 km/h 65% 0 mm 0 W/m2
20:08 -5.8 °C -11.3 °C 1019.9 hPa SSW 1.6 km/h 3.2 km/h 65% 0 mm 0 W/m2
20:13 -5.6 °C -11.3 °C 1019.5 hPa Calm   1.6 km/h 64% 0 mm 0 W/m2
20:19 -5.1 °C -11.1 °C 1019.5 hPa Calm     63% 0 mm 0 W/m2
20:25 -5 °C -11.2 °C 1019.5 hPa SSW 1.6 km/h 3.2 km/h 62% 0 mm 0 W/m2
20:32 -4.9 °C -11.3 °C 1019.5 hPa Calm   3.2 km/h 61% 0 mm 0 W/m2
20:38 -4.6 °C -11.2 °C 1019.2 hPa SSW 1.6 km/h 3.2 km/h 60% 0 mm 0 W/m2
20:43 -4.1 °C -10.9 °C 1019.2 hPa South 3.2 km/h 3.2 km/h 59% 0 mm 0 W/m2
20:49 -3.7 °C -10.7 °C 1019.2 hPa South 3.2 km/h 8 km/h 58% 0 mm 0 W/m2
20:55 -3.4 °C -10.5 °C 1019.2 hPa SSE 3.2 km/h 8 km/h 58% 0 mm 0 W/m2
21:02 -3.2 °C -10.5 °C 1019.2 hPa SSE 4.8 km/h 4.8 km/h 57% 0 mm 0 W/m2
21:08 -3.1 °C -10.4 °C 1018.8 hPa South 4.8 km/h 4.8 km/h 57% 0 mm 0 W/m2
21:13 -2.8 °C -10.4 °C 1018.8 hPa SSW 4.8 km/h 9.7 km/h 56% 0 mm 0 W/m2
21:19 -2.6 °C -9.9 °C 1018.8 hPa South 6.4 km/h 6.4 km/h 57% 0 mm 0 W/m2
21:25 -2.4 °C -9.8 °C 1018.5 hPa South 8 km/h 9.7 km/h 57% 0 mm 0 W/m2
21:32 -2.3 °C -9.5 °C 1018.5 hPa SSE 6.4 km/h 8 km/h 58% 0 mm 0 W/m2
21:38 -2.3 °C -9.2 °C 1018.5 hPa South 6.4 km/h 14.5 km/h 59% 0 mm 0 W/m2
21:43 -2.2 °C -8.9 °C 1018.5 hPa SSW 8 km/h 8 km/h 60% 0 mm 0 W/m2
21:49 -2.1 °C -8.8 °C 1018.5 hPa SW 8 km/h 8 km/h 60% 0 mm 0 W/m2
21:55 -2.1 °C -8.6 °C 1018.2 hPa South 8 km/h 14.5 km/h 61% 0 mm 0 W/m2
22:02 -1.9 °C -8.3 °C 1018.5 hPa South 8 km/h 9.7 km/h 62% 0 mm 0 W/m2
22:08 -1.9 °C -7.8 °C 1018.2 hPa South 8 km/h 9.7 km/h 64% 0 mm 0 W/m2
22:13 -1.9 °C -7.4 °C 1018.2 hPa SSW 8 km/h 12.9 km/h 66% 0 mm 0 W/m2
22:19 -1.9 °C -7.4 °C 1018.2 hPa South 6.4 km/h 6.4 km/h 66% 0 mm 0 W/m2
22:25 -1.7 °C -7.4 °C 1018.2 hPa SW 8 km/h 17.7 km/h 65% 0 mm 0 W/m2
22:32 -1.4 °C -7.6 °C 1018.2 hPa SSW 9.7 km/h 14.5 km/h 63% 0 mm 0 W/m2
22:38 -1.3 °C -7.5 °C 1017.8 hPa South 9.7 km/h 14.5 km/h 63% 0 mm 0 W/m2
22:43 -1.4 °C -7.6 °C 1017.8 hPa South 8 km/h 9.7 km/h 63% 0 mm 0 W/m2
22:49 -1.5 °C -7.8 °C 1017.8 hPa SSE 8 km/h 8 km/h 62% 0 mm 0 W/m2
22:55 -1.6 °C -7.7 °C 1017.5 hPa SSE 9.7 km/h 17.7 km/h 63% 0 mm 0 W/m2
23:02 -1.6 °C -7.7 °C 1017.5 hPa SSE 9.7 km/h 19.3 km/h 63% 0 mm 0 W/m2
23:08 -1.6 °C -7.9 °C 1017.5 hPa SSW 9.7 km/h 19.3 km/h 62% 0 mm 0 W/m2
23:13 -1.6 °C -8.1 °C 1017.5 hPa South 8 km/h 11.3 km/h 61% 0 mm 0 W/m2
23:19 -1.4 °C -8.4 °C 1017.5 hPa South 6.4 km/h 9.7 km/h 59% 0 mm 0 W/m2
23:25 -1.3 °C -8.7 °C 1017.5 hPa SW 9.7 km/h 19.3 km/h 57% 0 mm 0 W/m2
23:31 -1.2 °C -8.9 °C 1017.2 hPa SSW 9.7 km/h 9.7 km/h 56% 0 mm 0 W/m2
23:38 -1.2 °C -8.9 °C 1017.5 hPa SW 8 km/h 9.7 km/h 56% 0 mm 0 W/m2
23:43 -1.2 °C -8.9 °C 1017.2 hPa SSW 6.4 km/h 19.3 km/h 56% 0 mm 0 W/m2
23:49 -1.2 °C -9.1 °C 1017.5 hPa South 8 km/h 17.7 km/h 55% 0 mm 0 W/m2
23:55 -1.1 °C -9.2 °C 1017.2 hPa South 8 km/h 17.7 km/h 54% 0 mm 0 W/m2
Country Meadow, Clay, NY, USA
Compliments of Weather Underground - 2 mb